DAL7892 KJFK-KBOS
Flight info
| Callsign | DAL7892 |
|---|---|
| Flight time | 0h 50m |
| Altitude | 21000 |
| Route | MERIT ROBUC3 |
| Aircraft | B738/M-SDE2E3FGHIRWXY/LB1 |
Departure
| Time | 2026-05-08 00:00 |
|---|---|
| Airport | John F. Kennedy International Airport (KJFK) |
Arrival
| Time | 2026-05-08 00:51 |
|---|---|
| Airport | Boston Logan International Airport (KBOS) |
| Time | Latitude | Longitude | Altitude | Speed | Heading |
|---|---|---|---|---|---|
| 2026-05-07 23:30 | 40.63924 | -73.78205 | 19 ft | 0 kts | 73° |
| 2026-05-07 23:31 | 40.63986 | -73.78241 | 21 ft | 0 kts | 62° |
| 2026-05-07 23:51 | 40.63985 | -73.78244 | 19 ft | 1 kts | 62° |
| 2026-05-07 23:51 | 40.63976 | -73.78264 | 20 ft | 3 kts | 62° |
| 2026-05-07 23:51 | 40.63967 | -73.78287 | 22 ft | 2 kts | 62° |
| 2026-05-07 23:51 | 40.63959 | -73.78307 | 23 ft | 3 kts | 74° |
| 2026-05-07 23:52 | 40.63957 | -73.78331 | 22 ft | 3 kts | 111° |
| 2026-05-07 23:52 | 40.63967 | -73.78350 | 22 ft | 3 kts | 146° |
| 2026-05-07 23:52 | 40.63983 | -73.78362 | 23 ft | 2 kts | 151° |
| 2026-05-07 23:52 | 40.63988 | -73.78366 | 19 ft | 0 kts | 151° |
| 2026-05-07 23:55 | 40.63972 | -73.78355 | 21 ft | 8 kts | 151° |
| 2026-05-07 23:55 | 40.63878 | -73.78295 | 20 ft | 18 kts | 163° |
| 2026-05-07 23:55 | 40.63771 | -73.78279 | 20 ft | 13 kts | 173° |
| 2026-05-07 23:56 | 40.63685 | -73.78265 | 20 ft | 12 kts | 172° |
| 2026-05-07 23:56 | 40.63602 | -73.78251 | 26 ft | 12 kts | 179° |
| 2026-05-07 23:56 | 40.63531 | -73.78276 | 20 ft | 9 kts | 177° |
| 2026-05-07 23:56 | 40.63490 | -73.78214 | 20 ft | 9 kts | 121° |
| 2026-05-07 23:57 | 40.63457 | -73.78142 | 20 ft | 9 kts | 121° |
| 2026-05-07 23:57 | 40.63424 | -73.78073 | 20 ft | 9 kts | 121° |
| 2026-05-07 23:57 | 40.63395 | -73.78004 | 20 ft | 9 kts | 118° |
| 2026-05-07 23:57 | 40.63377 | -73.77964 | 20 ft | 1 kts | 127° |
| 2026-05-07 23:58 | 40.63371 | -73.77959 | 20 ft | 2 kts | 151° |
| 2026-05-07 23:58 | 40.63357 | -73.77960 | 20 ft | 2 kts | 194° |
| 2026-05-07 23:58 | 40.63349 | -73.77962 | 20 ft | 2 kts | 194° |
| 2026-05-07 23:58 | 40.63330 | -73.77970 | 20 ft | 6 kts | 198° |
| 2026-05-07 23:59 | 40.63269 | -73.77996 | 22 ft | 12 kts | 198° |
| 2026-05-07 23:59 | 40.63229 | -73.78015 | 23 ft | 6 kts | 210° |
| 2026-05-07 23:59 | 40.63213 | -73.78088 | 21 ft | 0 kts | 296° |
| 2026-05-08 00:00 | 40.63240 | -73.78150 | 20 ft | 32 kts | 301° |
| 2026-05-08 00:00 | 40.63502 | -73.78723 | 22 ft | 111 kts | 301° |
| 2026-05-08 00:00 | 40.64008 | -73.79868 | 51 ft | 173 kts | 297° |
| 2026-05-08 00:00 | 40.64636 | -73.81276 | 829 ft | 174 kts | 300° |
| 2026-05-08 00:01 | 40.65256 | -73.82564 | 1904 ft | 168 kts | 306° |
| 2026-05-08 00:01 | 40.65660 | -73.84148 | 2267 ft | 205 kts | 269° |
| 2026-05-08 00:01 | 40.65014 | -73.85942 | 2534 ft | 237 kts | 225° |
| 2026-05-08 00:01 | 40.63679 | -73.87282 | 3119 ft | 245 kts | 220° |
| 2026-05-08 00:02 | 40.62342 | -73.88775 | 3593 ft | 261 kts | 220° |
| 2026-05-08 00:02 | 40.60677 | -73.89814 | 4309 ft | 272 kts | 191° |
| 2026-05-08 00:02 | 40.58797 | -73.89684 | 5320 ft | 274 kts | 163° |
| 2026-05-08 00:02 | 40.57151 | -73.88437 | 6300 ft | 276 kts | 136° |
| 2026-05-08 00:03 | 40.56081 | -73.86331 | 7104 ft | 284 kts | 110° |
| 2026-05-08 00:03 | 40.55798 | -73.83741 | 7766 ft | 293 kts | 83° |
| 2026-05-08 00:03 | 40.56259 | -73.81118 | 7995 ft | 297 kts | 70° |
| 2026-05-08 00:03 | 40.56938 | -73.78551 | 7993 ft | 296 kts | 68° |
| 2026-05-08 00:04 | 40.57643 | -73.76008 | 8000 ft | 295 kts | 68° |
| 2026-05-08 00:04 | 40.58351 | -73.73476 | 8003 ft | 295 kts | 68° |
| 2026-05-08 00:04 | 40.59066 | -73.70936 | 8024 ft | 297 kts | 67° |
| 2026-05-08 00:04 | 40.59793 | -73.68361 | 8475 ft | 304 kts | 67° |
| 2026-05-08 00:05 | 40.60521 | -73.65780 | 9376 ft | 307 kts | 67° |
| 2026-05-08 00:05 | 40.61264 | -73.63106 | 10102 ft | 316 kts | 67° |
| 2026-05-08 00:05 | 40.62038 | -73.60308 | 10435 ft | 339 kts | 67° |
| 2026-05-08 00:05 | 40.62881 | -73.57288 | 10625 ft | 364 kts | 67° |
| 2026-05-08 00:06 | 40.63792 | -73.54072 | 10946 ft | 383 kts | 68° |
| 2026-05-08 00:06 | 40.64867 | -73.50826 | 11495 ft | 391 kts | 56° |
| 2026-05-08 00:06 | 40.66638 | -73.48113 | 12148 ft | 391 kts | 34° |
| 2026-05-08 00:06 | 40.68961 | -73.46319 | 12798 ft | 388 kts | 16° |
| 2026-05-08 00:07 | 40.71503 | -73.45084 | 13452 ft | 392 kts | 12° |
| 2026-05-08 00:07 | 40.74082 | -73.43931 | 14300 ft | 391 kts | 12° |
| 2026-05-08 00:07 | 40.76675 | -73.42772 | 14994 ft | 395 kts | 12° |
| 2026-05-08 00:07 | 40.79296 | -73.41603 | 15703 ft | 399 kts | 12° |
| 2026-05-08 00:08 | 40.81930 | -73.40431 | 16455 ft | 401 kts | 11° |
| 2026-05-08 00:08 | 40.84602 | -73.39248 | 17027 ft | 409 kts | 11° |
| 2026-05-08 00:08 | 40.87328 | -73.38049 | 17595 ft | 416 kts | 11° |
| 2026-05-08 00:08 | 40.90096 | -73.36839 | 18201 ft | 422 kts | 11° |
| 2026-05-08 00:09 | 40.92896 | -73.35621 | 18757 ft | 426 kts | 11° |
| 2026-05-08 00:09 | 40.95718 | -73.34396 | 19385 ft | 428 kts | 11° |
| 2026-05-08 00:09 | 40.98556 | -73.33166 | 20020 ft | 430 kts | 11° |
| 2026-05-08 00:09 | 41.01407 | -73.31935 | 20554 ft | 435 kts | 10° |
| 2026-05-08 00:10 | 41.04305 | -73.30689 | 20865 ft | 439 kts | 10° |
| 2026-05-08 00:10 | 41.07210 | -73.29442 | 20826 ft | 438 kts | 10° |
| 2026-05-08 00:10 | 41.10105 | -73.28200 | 20856 ft | 438 kts | 11° |
| 2026-05-08 00:10 | 41.12895 | -73.26467 | 20840 ft | 453 kts | 30° |
| 2026-05-08 00:11 | 41.15181 | -73.23541 | 20881 ft | 462 kts | 50° |
| 2026-05-08 00:11 | 41.16829 | -73.19876 | 20907 ft | 465 kts | 66° |
| 2026-05-08 00:11 | 41.18093 | -73.15917 | 20867 ft | 466 kts | 68° |
| 2026-05-08 00:11 | 41.19332 | -73.11944 | 20854 ft | 466 kts | 68° |
| 2026-05-08 00:12 | 41.20577 | -73.07959 | 20852 ft | 467 kts | 68° |
| 2026-05-08 00:12 | 41.21830 | -73.03982 | 20853 ft | 466 kts | 68° |
| 2026-05-08 00:12 | 41.23093 | -73.00016 | 20855 ft | 466 kts | 67° |
| 2026-05-08 00:12 | 41.24363 | -72.96055 | 20855 ft | 466 kts | 67° |
| 2026-05-08 00:13 | 41.25637 | -72.92100 | 20835 ft | 465 kts | 67° |
| 2026-05-08 00:13 | 41.26910 | -72.88150 | 20856 ft | 464 kts | 67° |
| 2026-05-08 00:13 | 41.28182 | -72.84204 | 20862 ft | 465 kts | 67° |
| 2026-05-08 00:13 | 41.29453 | -72.80253 | 20864 ft | 465 kts | 67° |
| 2026-05-08 00:14 | 41.30725 | -72.76296 | 20911 ft | 465 kts | 67° |
| 2026-05-08 00:14 | 41.31995 | -72.72333 | 20866 ft | 466 kts | 67° |
| 2026-05-08 00:14 | 41.33266 | -72.68363 | 20858 ft | 466 kts | 67° |
| 2026-05-08 00:14 | 41.34536 | -72.64389 | 20863 ft | 467 kts | 67° |
| 2026-05-08 00:15 | 41.35802 | -72.60420 | 20863 ft | 467 kts | 68° |
| 2026-05-08 00:15 | 41.37067 | -72.56449 | 20800 ft | 462 kts | 68° |
| 2026-05-08 00:15 | 41.38310 | -72.52541 | 20418 ft | 457 kts | 68° |
| 2026-05-08 00:15 | 41.39542 | -72.48664 | 20133 ft | 452 kts | 68° |
| 2026-05-08 00:16 | 41.40775 | -72.44778 | 19902 ft | 459 kts | 68° |
| 2026-05-08 00:16 | 41.42021 | -72.40839 | 19668 ft | 463 kts | 68° |
| 2026-05-08 00:16 | 41.43256 | -72.36933 | 19427 ft | 462 kts | 68° |
| 2026-05-08 00:16 | 41.44497 | -72.33006 | 19179 ft | 459 kts | 68° |
| 2026-05-08 00:17 | 41.45728 | -72.29104 | 18934 ft | 456 kts | 68° |
| 2026-05-08 00:17 | 41.46954 | -72.25212 | 18665 ft | 454 kts | 68° |
| 2026-05-08 00:17 | 41.48173 | -72.21335 | 18437 ft | 452 kts | 68° |
| 2026-05-08 00:17 | 41.49385 | -72.17474 | 18201 ft | 451 kts | 68° |
| 2026-05-08 00:18 | 41.50593 | -72.13620 | 17942 ft | 449 kts | 68° |
| 2026-05-08 00:18 | 41.51797 | -72.09774 | 17677 ft | 448 kts | 68° |
| 2026-05-08 00:18 | 41.52993 | -72.05947 | 17414 ft | 446 kts | 68° |
| 2026-05-08 00:18 | 41.54180 | -72.02146 | 17145 ft | 442 kts | 68° |
| 2026-05-08 00:19 | 41.55314 | -71.98506 | 16887 ft | 439 kts | 68° |
| 2026-05-08 00:19 | 41.56483 | -71.94751 | 16636 ft | 437 kts | 68° |
| 2026-05-08 00:19 | 41.57645 | -71.91014 | 16390 ft | 434 kts | 68° |
| 2026-05-08 00:19 | 41.58800 | -71.87293 | 16120 ft | 432 kts | 68° |
| 2026-05-08 00:20 | 41.59945 | -71.83600 | 15871 ft | 430 kts | 68° |
| 2026-05-08 00:20 | 41.61084 | -71.79920 | 15603 ft | 427 kts | 68° |
| 2026-05-08 00:20 | 41.62216 | -71.76259 | 15350 ft | 425 kts | 68° |
| 2026-05-08 00:20 | 41.63339 | -71.72621 | 15091 ft | 422 kts | 67° |
| 2026-05-08 00:21 | 41.64455 | -71.69000 | 14861 ft | 420 kts | 67° |
| 2026-05-08 00:21 | 41.65565 | -71.65396 | 14620 ft | 418 kts | 67° |
| 2026-05-08 00:21 | 41.66666 | -71.61815 | 14376 ft | 415 kts | 67° |
| 2026-05-08 00:21 | 41.67760 | -71.58249 | 14137 ft | 413 kts | 67° |
| 2026-05-08 00:22 | 41.68847 | -71.54707 | 13882 ft | 411 kts | 67° |
| 2026-05-08 00:22 | 41.69928 | -71.51177 | 13637 ft | 409 kts | 66° |
| 2026-05-08 00:22 | 41.71008 | -71.47650 | 13381 ft | 408 kts | 66° |
| 2026-05-08 00:22 | 41.72078 | -71.44146 | 13137 ft | 406 kts | 66° |
| 2026-05-08 00:23 | 41.73256 | -71.40734 | 12865 ft | 402 kts | 59° |
| 2026-05-08 00:23 | 41.74661 | -71.37527 | 12604 ft | 397 kts | 56° |
| 2026-05-08 00:23 | 41.76091 | -71.34383 | 12346 ft | 393 kts | 57° |
| 2026-05-08 00:23 | 41.77475 | -71.31244 | 12086 ft | 390 kts | 57° |
| 2026-05-08 00:24 | 41.78824 | -71.28110 | 11824 ft | 385 kts | 58° |
| 2026-05-08 00:24 | 41.80132 | -71.25033 | 11552 ft | 376 kts | 58° |
| 2026-05-08 00:24 | 41.81411 | -71.22020 | 11286 ft | 368 kts | 58° |
| 2026-05-08 00:24 | 41.82659 | -71.19081 | 11067 ft | 357 kts | 58° |
| 2026-05-08 00:25 | 41.83861 | -71.16249 | 11000 ft | 342 kts | 58° |
| 2026-05-08 00:25 | 41.85014 | -71.13531 | 10983 ft | 329 kts | 57° |
| 2026-05-08 00:25 | 41.86134 | -71.10905 | 11000 ft | 321 kts | 57° |
| 2026-05-08 00:25 | 41.87250 | -71.08321 | 11000 ft | 320 kts | 57° |
| 2026-05-08 00:26 | 41.88375 | -71.05729 | 11011 ft | 323 kts | 57° |
| 2026-05-08 00:26 | 41.89508 | -71.03114 | 11009 ft | 325 kts | 57° |
| 2026-05-08 00:26 | 41.90653 | -71.00468 | 11015 ft | 330 kts | 57° |
| 2026-05-08 00:26 | 41.91755 | -70.97914 | 11002 ft | 325 kts | 57° |
| 2026-05-08 00:27 | 41.92877 | -70.95308 | 10984 ft | 319 kts | 57° |
| 2026-05-08 00:27 | 41.93964 | -70.92778 | 10978 ft | 306 kts | 57° |
| 2026-05-08 00:27 | 41.94994 | -70.90379 | 10980 ft | 294 kts | 57° |
| 2026-05-08 00:27 | 41.95992 | -70.88054 | 10965 ft | 281 kts | 57° |
| 2026-05-08 00:28 | 41.96948 | -70.85826 | 10967 ft | 270 kts | 57° |
| 2026-05-08 00:28 | 41.97880 | -70.83658 | 10979 ft | 268 kts | 56° |
| 2026-05-08 00:28 | 41.98844 | -70.81422 | 11024 ft | 290 kts | 57° |
| 2026-05-08 00:28 | 41.99891 | -70.78987 | 11049 ft | 307 kts | 57° |
| 2026-05-08 00:29 | 42.00962 | -70.76502 | 11004 ft | 307 kts | 55° |
| 2026-05-08 00:29 | 42.02237 | -70.74246 | 10994 ft | 301 kts | 44° |
| 2026-05-08 00:29 | 42.03664 | -70.72187 | 10993 ft | 301 kts | 42° |
| 2026-05-08 00:29 | 42.05105 | -70.70137 | 10990 ft | 302 kts | 43° |
| 2026-05-08 00:30 | 42.06536 | -70.68053 | 10988 ft | 303 kts | 43° |
| 2026-05-08 00:30 | 42.07953 | -70.65948 | 10988 ft | 304 kts | 44° |
| 2026-05-08 00:30 | 42.09368 | -70.63832 | 10984 ft | 304 kts | 44° |
| 2026-05-08 00:30 | 42.10949 | -70.61959 | 10980 ft | 304 kts | 22° |
| 2026-05-08 00:31 | 42.12934 | -70.61061 | 11006 ft | 303 kts | 4° |
| 2026-05-08 00:31 | 42.15018 | -70.60602 | 10997 ft | 303 kts | 2° |
| 2026-05-08 00:31 | 42.17101 | -70.60194 | 10999 ft | 301 kts | 2° |
| 2026-05-08 00:31 | 42.19171 | -70.59788 | 10978 ft | 300 kts | 2° |
| 2026-05-08 00:32 | 42.21232 | -70.59372 | 10970 ft | 299 kts | 2° |
| 2026-05-08 00:32 | 42.23274 | -70.58950 | 10852 ft | 296 kts | 2° |
| 2026-05-08 00:32 | 42.25301 | -70.58525 | 10585 ft | 294 kts | 3° |
| 2026-05-08 00:32 | 42.27319 | -70.58098 | 10248 ft | 294 kts | 3° |
| 2026-05-08 00:33 | 42.29331 | -70.57669 | 9958 ft | 292 kts | 4° |
| 2026-05-08 00:33 | 42.31325 | -70.57250 | 9680 ft | 288 kts | 1° |
| 2026-05-08 00:33 | 42.33294 | -70.57324 | 9358 ft | 280 kts | 348° |
| 2026-05-08 00:33 | 42.35210 | -70.57708 | 9028 ft | 278 kts | 346° |
| 2026-05-08 00:34 | 42.37097 | -70.58130 | 8830 ft | 268 kts | 346° |
| 2026-05-08 00:34 | 42.38891 | -70.58533 | 8730 ft | 256 kts | 346° |
| 2026-05-08 00:34 | 42.40620 | -70.58924 | 8654 ft | 247 kts | 346° |
| 2026-05-08 00:34 | 42.42284 | -70.59296 | 8552 ft | 239 kts | 346° |
| 2026-05-08 00:35 | 42.43925 | -70.59664 | 8108 ft | 240 kts | 346° |
| 2026-05-08 00:35 | 42.45583 | -70.60048 | 7600 ft | 243 kts | 346° |
| 2026-05-08 00:35 | 42.47235 | -70.60444 | 7117 ft | 245 kts | 346° |
| 2026-05-08 00:35 | 42.48905 | -70.60857 | 6749 ft | 242 kts | 346° |
| 2026-05-08 00:36 | 42.50499 | -70.61485 | 6346 ft | 236 kts | 327° |
| 2026-05-08 00:36 | 42.51616 | -70.63017 | 5963 ft | 228 kts | 296° |
| 2026-05-08 00:36 | 42.51945 | -70.65097 | 5451 ft | 231 kts | 265° |
| 2026-05-08 00:36 | 42.51378 | -70.67132 | 4948 ft | 238 kts | 235° |
| 2026-05-08 00:37 | 42.50069 | -70.68530 | 4464 ft | 245 kts | 209° |
| 2026-05-08 00:37 | 42.48537 | -70.69440 | 4399 ft | 235 kts | 206° |
| 2026-05-08 00:37 | 42.47040 | -70.70242 | 4307 ft | 229 kts | 199° |
| 2026-05-08 00:38 | 42.44079 | -70.69163 | 4042 ft | 236 kts | 139° |
| 2026-05-08 00:38 | 42.42903 | -70.67616 | 4010 ft | 236 kts | 136° |
| 2026-05-08 00:38 | 42.41753 | -70.66033 | 3987 ft | 235 kts | 136° |
| 2026-05-08 00:38 | 42.40612 | -70.64457 | 3980 ft | 234 kts | 136° |
| 2026-05-08 00:39 | 42.39474 | -70.62887 | 3979 ft | 234 kts | 136° |
| 2026-05-08 00:39 | 42.38469 | -70.61149 | 3966 ft | 237 kts | 113° |
| 2026-05-08 00:39 | 42.38217 | -70.58983 | 3994 ft | 234 kts | 82° |
| 2026-05-08 00:39 | 42.38486 | -70.56810 | 3990 ft | 235 kts | 76° |
| 2026-05-08 00:40 | 42.38817 | -70.54633 | 3990 ft | 237 kts | 76° |
| 2026-05-08 00:40 | 42.39154 | -70.52450 | 3986 ft | 238 kts | 76° |
| 2026-05-08 00:40 | 42.39496 | -70.50257 | 3982 ft | 238 kts | 76° |
| 2026-05-08 00:40 | 42.39864 | -70.48078 | 3975 ft | 237 kts | 68° |
| 2026-05-08 00:41 | 42.40748 | -70.46282 | 3990 ft | 227 kts | 34° |
| 2026-05-08 00:41 | 42.42140 | -70.45475 | 3979 ft | 216 kts | 0° |
| 2026-05-08 00:41 | 42.43552 | -70.45868 | 3981 ft | 206 kts | 326° |
| 2026-05-08 00:41 | 42.44473 | -70.47264 | 3972 ft | 201 kts | 289° |
| 2026-05-08 00:42 | 42.44548 | -70.49135 | 4010 ft | 204 kts | 266° |
| 2026-05-08 00:42 | 42.44454 | -70.50416 | 3989 ft | 209 kts | 265° |
| 2026-05-08 00:42 | 42.44242 | -70.52363 | 4006 ft | 208 kts | 262° |
| 2026-05-08 00:42 | 42.43955 | -70.54282 | 3972 ft | 209 kts | 260° |
| 2026-05-08 00:43 | 42.43630 | -70.56204 | 3975 ft | 208 kts | 259° |
| 2026-05-08 00:43 | 42.43301 | -70.58061 | 3971 ft | 196 kts | 258° |
| 2026-05-08 00:43 | 42.42993 | -70.59772 | 3971 ft | 179 kts | 259° |
| 2026-05-08 00:43 | 42.42709 | -70.61343 | 3975 ft | 169 kts | 259° |
| 2026-05-08 00:44 | 42.42432 | -70.62886 | 3983 ft | 168 kts | 259° |
| 2026-05-08 00:44 | 42.42156 | -70.64418 | 3982 ft | 167 kts | 259° |
| 2026-05-08 00:44 | 42.41882 | -70.65943 | 3982 ft | 167 kts | 259° |
| 2026-05-08 00:44 | 42.41608 | -70.67465 | 3973 ft | 166 kts | 259° |
| 2026-05-08 00:45 | 42.41339 | -70.68957 | 3971 ft | 158 kts | 259° |
| 2026-05-08 00:45 | 42.41094 | -70.70312 | 4003 ft | 139 kts | 259° |
| 2026-05-08 00:45 | 42.40871 | -70.71556 | 4048 ft | 136 kts | 259° |
| 2026-05-08 00:45 | 42.40642 | -70.72841 | 3887 ft | 140 kts | 259° |
| 2026-05-08 00:46 | 42.40413 | -70.74119 | 3700 ft | 139 kts | 260° |
| 2026-05-08 00:46 | 42.40188 | -70.75370 | 3514 ft | 135 kts | 260° |
| 2026-05-08 00:46 | 42.39971 | -70.76582 | 3334 ft | 130 kts | 260° |
| 2026-05-08 00:46 | 42.39762 | -70.77752 | 3165 ft | 127 kts | 260° |
| 2026-05-08 00:47 | 42.39549 | -70.78947 | 3019 ft | 135 kts | 260° |
| 2026-05-08 00:47 | 42.39326 | -70.80199 | 2811 ft | 137 kts | 260° |
| 2026-05-08 00:47 | 42.39103 | -70.81437 | 2612 ft | 134 kts | 261° |
| 2026-05-08 00:47 | 42.38887 | -70.82646 | 2435 ft | 131 kts | 261° |
| 2026-05-08 00:48 | 42.38674 | -70.83844 | 2266 ft | 132 kts | 261° |
| 2026-05-08 00:48 | 42.38458 | -70.85054 | 2084 ft | 133 kts | 261° |
| 2026-05-08 00:48 | 42.38241 | -70.86273 | 1896 ft | 133 kts | 261° |
| 2026-05-08 00:48 | 42.38026 | -70.87478 | 1725 ft | 131 kts | 262° |
| 2026-05-08 00:49 | 42.37818 | -70.88649 | 1532 ft | 129 kts | 261° |
| 2026-05-08 00:49 | 42.37609 | -70.89824 | 1369 ft | 129 kts | 261° |
| 2026-05-08 00:49 | 42.37396 | -70.91023 | 1193 ft | 132 kts | 260° |
| 2026-05-08 00:49 | 42.37179 | -70.92246 | 1004 ft | 132 kts | 260° |
| 2026-05-08 00:50 | 42.36972 | -70.93421 | 804 ft | 132 kts | 259° |
| 2026-05-08 00:50 | 42.36753 | -70.94642 | 663 ft | 133 kts | 258° |
| 2026-05-08 00:50 | 42.36537 | -70.95853 | 510 ft | 133 kts | 258° |
| 2026-05-08 00:50 | 42.36314 | -70.97074 | 362 ft | 132 kts | 259° |
| 2026-05-08 00:51 | 42.36105 | -70.98258 | 139 ft | 127 kts | 260° |
| 2026-05-08 00:51 | 42.35921 | -70.99359 | 24 ft | 104 kts | 256° |
| 2026-05-08 00:51 | 42.35810 | -70.99978 | 24 ft | 43 kts | 256° |
| 2026-05-08 00:51 | 42.35752 | -71.00328 | 24 ft | 31 kts | 269° |
| 2026-05-08 00:52 | 42.35777 | -71.00602 | 27 ft | 28 kts | 278° |
| 2026-05-08 00:52 | 42.35803 | -71.00850 | 27 ft | 26 kts | 279° |
| 2026-05-08 00:52 | 42.35829 | -71.01079 | 24 ft | 24 kts | 277° |
| 2026-05-08 00:52 | 42.35844 | -71.01246 | 24 ft | 7 kts | 277° |
| 2026-05-08 00:53 | 42.35847 | -71.01269 | 29 ft | 0 kts | 277° |
| 2026-05-08 00:54 | 42.35848 | -71.01277 | 24 ft | 4 kts | 277° |
| 2026-05-08 00:54 | 42.35853 | -71.01331 | 24 ft | 6 kts | 278° |
| 2026-05-08 00:55 | 42.35859 | -71.01387 | 24 ft | 6 kts | 278° |
| 2026-05-08 00:55 | 42.35867 | -71.01447 | 26 ft | 8 kts | 281° |
| 2026-05-08 00:55 | 42.35902 | -71.01531 | 24 ft | 13 kts | 337° |
| 2026-05-08 00:55 | 42.35982 | -71.01505 | 26 ft | 13 kts | 20° |
| 2026-05-08 00:56 | 42.36064 | -71.01465 | 27 ft | 12 kts | 20° |
| 2026-05-08 00:56 | 42.36143 | -71.01426 | 24 ft | 12 kts | 19° |
| 2026-05-08 00:56 | 42.36221 | -71.01389 | 26 ft | 12 kts | 19° |
| 2026-05-08 00:56 | 42.36250 | -71.01375 | 24 ft | 0 kts | 19° |
| 2026-05-08 01:02 | 42.36258 | -71.01371 | 13 ft | 4 kts | 19° |
| 2026-05-08 01:02 | 42.36318 | -71.01341 | 24 ft | 14 kts | 20° |
| 2026-05-08 01:02 | 42.36418 | -71.01296 | 26 ft | 15 kts | 21° |
| 2026-05-08 01:03 | 42.36517 | -71.01246 | 26 ft | 15 kts | 19° |
| 2026-05-08 01:03 | 42.36578 | -71.01257 | 28 ft | 9 kts | 304° |
| 2026-05-08 01:03 | 42.36635 | -71.01271 | 25 ft | 9 kts | 11° |
| 2026-05-08 01:03 | 42.36695 | -71.01250 | 25 ft | 10 kts | 15° |
| 2026-05-08 01:04 | 42.36766 | -71.01251 | 29 ft | 11 kts | 339° |
| 2026-05-08 01:04 | 42.36828 | -71.01321 | 25 ft | 13 kts | 316° |
| 2026-05-08 01:04 | 42.36891 | -71.01405 | 26 ft | 13 kts | 316° |
| 2026-05-08 01:04 | 42.36953 | -71.01490 | 26 ft | 12 kts | 309° |
| 2026-05-08 01:05 | 42.36989 | -71.01560 | 26 ft | 6 kts | 276° |
| 2026-05-08 01:05 | 42.36966 | -71.01602 | 24 ft | 6 kts | 215° |
| 2026-05-08 01:05 | 42.36923 | -71.01641 | 24 ft | 8 kts | 214° |
| 2026-05-08 01:05 | 42.36899 | -71.01683 | 25 ft | 6 kts | 278° |
| 2026-05-08 01:06 | 42.36924 | -71.01725 | 26 ft | 6 kts | 316° |
| 2026-05-08 01:06 | 42.36929 | -71.01733 | 27 ft | 0 kts | 316° |